sensor_id;sensor_type;location;lat;lon;timestamp;pressure;altitude;pressure_sealevel;temperature;humidity
71917;BME280;59793;46.506;6.674;2023-06-05T00:01:07;97109.47;;;17.83;64.70
71917;BME280;59793;46.506;6.674;2023-06-05T00:03:32;97120.91;;;17.73;65.50
71917;BME280;59793;46.506;6.674;2023-06-05T00:05:58;97114.53;;;17.46;66.50
71917;BME280;59793;46.506;6.674;2023-06-05T00:08:24;97087.13;;;17.38;66.63
71917;BME280;59793;46.506;6.674;2023-06-05T00:10:49;97092.44;;;17.45;66.71
71917;BME280;59793;46.506;6.674;2023-06-05T00:13:15;97112.22;;;17.40;67.15
71917;BME280;59793;46.506;6.674;2023-06-05T00:15:41;97115.31;;;17.25;67.73
71917;BME280;59793;46.506;6.674;2023-06-05T00:18:06;97071.22;;;16.95;67.73
71917;BME280;59793;46.506;6.674;2023-06-05T00:20:33;97125.16;;;17.35;67.67
71917;BME280;59793;46.506;6.674;2023-06-05T00:22:59;97117.97;;;17.32;67.61
71917;BME280;59793;46.506;6.674;2023-06-05T00:25:24;97106.19;;;17.26;67.54
71917;BME280;59793;46.506;6.674;2023-06-05T00:27:50;97114.88;;;17.44;67.63
71917;BME280;59793;46.506;6.674;2023-06-05T00:30:15;97105.78;;;17.16;67.90
71917;BME280;59793;46.506;6.674;2023-06-05T00:32:41;97103.16;;;17.02;68.32
71917;BME280;59793;46.506;6.674;2023-06-05T00:35:07;97114.94;;;16.98;68.79
71917;BME280;59793;46.506;6.674;2023-06-05T00:37:33;97078.41;;;16.66;69.52
71917;BME280;59793;46.506;6.674;2023-06-05T00:39:59;97105.81;;;16.77;69.68
71917;BME280;59793;46.506;6.674;2023-06-05T00:42:24;97121.78;;;16.91;69.67
71917;BME280;59793;46.506;6.674;2023-06-05T00:44:51;97123.66;;;16.73;70.11
71917;BME280;59793;46.506;6.674;2023-06-05T00:47:16;97092.84;;;16.40;70.84
71917;BME280;59793;46.506;6.674;2023-06-05T00:49:42;97120.59;;;16.67;70.84
71917;BME280;59793;46.506;6.674;2023-06-05T00:52:08;97076.09;;;16.46;70.40
71917;BME280;59793;46.506;6.674;2023-06-05T00:54:33;97121.78;;;16.81;70.56
71917;BME280;59793;46.506;6.674;2023-06-05T00:56:59;97096.97;;;16.30;71.09
71917;BME280;59793;46.506;6.674;2023-06-05T00:59:26;97090.16;;;16.25;71.59
71917;BME280;59793;46.506;6.674;2023-06-05T01:01:51;97116.78;;;16.51;70.91
71917;BME280;59793;46.506;6.674;2023-06-05T01:04:19;97072.59;;;16.03;71.73
71917;BME280;59793;46.506;6.674;2023-06-05T01:06:44;97125.47;;;16.30;71.85
71917;BME280;59793;46.506;6.674;2023-06-05T01:09:10;97124.72;;;16.29;72.27
71917;BME280;59793;46.506;6.674;2023-06-05T01:11:50;97123.59;;;16.44;71.39
71917;BME280;59793;46.506;6.674;2023-06-05T01:14:30;97083.97;;;15.96;71.83
71917;BME280;59793;46.506;6.674;2023-06-05T01:16:59;97122.41;;;16.28;72.22
71917;BME280;59793;46.506;6.674;2023-06-05T01:19:26;97124.34;;;16.38;71.92
71917;BME280;59793;46.506;6.674;2023-06-05T01:21:57;97099.94;;;16.00;72.44
71917;BME280;59793;46.506;6.674;2023-06-05T01:24:23;97130.34;;;16.13;73.24
71917;BME280;59793;46.506;6.674;2023-06-05T01:27:15;97122.78;;;16.15;72.81
71917;BME280;59793;46.506;6.674;2023-06-05T01:30:05;97127.28;;;16.04;73.22
71917;BME280;59793;46.506;6.674;2023-06-05T01:35:14;97124.31;;;16.20;73.30
71917;BME280;59793;46.506;6.674;2023-06-05T01:37:46;97123.53;;;16.19;73.47
71917;BME280;59793;46.506;6.674;2023-06-05T01:40:15;97121.63;;;16.16;73.07
71917;BME280;59793;46.506;6.674;2023-06-05T01:42:41;97096.06;;;15.80;74.00
71917;BME280;59793;46.506;6.674;2023-06-05T01:45:08;97088.47;;;15.82;74.30
71917;BME280;59793;46.506;6.674;2023-06-05T01:47:34;97118.16;;;15.98;74.72
71917;BME280;59793;46.506;6.674;2023-06-05T01:50:00;97055.75;;;15.63;74.02
71917;BME280;59793;46.506;6.674;2023-06-05T01:52:26;97090.75;;;15.80;74.06
71917;BME280;59793;46.506;6.674;2023-06-05T01:54:53;97106.31;;;15.85;74.48
71917;BME280;59793;46.506;6.674;2023-06-05T01:57:18;97096.78;;;15.69;74.51
71917;BME280;59793;46.506;6.674;2023-06-05T01:59:44;97091.44;;;15.66;74.96
71917;BME280;59793;46.506;6.674;2023-06-05T02:02:10;97107.44;;;15.76;75.06
71917;BME280;59793;46.506;6.674;2023-06-05T02:04:37;97088.28;;;15.49;74.92
71917;BME280;59793;46.506;6.674;2023-06-05T02:07:03;97110.34;;;15.61;75.75
71917;BME280;59793;46.506;6.674;2023-06-05T02:09:30;97114.16;;;15.60;76.05
71917;BME280;59793;46.506;6.674;2023-06-05T02:12:00;97114.50;;;15.58;76.21
71917;BME280;59793;46.506;6.674;2023-06-05T02:14:31;97111.19;;;15.68;76.27
71917;BME280;59793;46.506;6.674;2023-06-05T02:16:58;97066.28;;;15.45;76.04
71917;BME280;59793;46.506;6.674;2023-06-05T02:19:24;97111.28;;;15.93;75.55
71917;BME280;59793;46.506;6.674;2023-06-05T02:21:49;97062.91;;;15.52;75.77
71917;BME280;59793;46.506;6.674;2023-06-05T02:24:17;97099.50;;;15.87;75.37
71917;BME280;59793;46.506;6.674;2023-06-05T02:26:44;97100.69;;;16.04;74.60
71917;BME280;59793;46.506;6.674;2023-06-05T02:29:09;97095.44;;;16.18;74.00
71917;BME280;59793;46.506;6.674;2023-06-05T02:31:35;97103.09;;;16.45;73.52
71917;BME280;59793;46.506;6.674;2023-06-05T02:34:02;97023.25;;;16.06;72.79
71917;BME280;59793;46.506;6.674;2023-06-05T02:36:27;97081.81;;;16.52;72.91
71917;BME280;59793;46.506;6.674;2023-06-05T02:38:52;97092.47;;;16.73;72.45
71917;BME280;59793;46.506;6.674;2023-06-05T02:41:19;97083.34;;;16.67;72.25
71917;BME280;59793;46.506;6.674;2023-06-05T02:43:46;97090.19;;;16.54;72.51
71917;BME280;59793;46.506;6.674;2023-06-05T02:46:12;97084.09;;;16.50;72.78
71917;BME280;59793;46.506;6.674;2023-06-05T02:48:37;97103.84;;;16.56;72.99
71917;BME280;59793;46.506;6.674;2023-06-05T02:51:03;97100.81;;;16.47;73.15
71917;BME280;59793;46.506;6.674;2023-06-05T02:53:28;97104.22;;;16.44;73.41
71917;BME280;59793;46.506;6.674;2023-06-05T02:55:54;97049.81;;;15.95;73.74
71917;BME280;59793;46.506;6.674;2023-06-05T02:58:21;97101.16;;;16.28;74.24
71917;BME280;59793;46.506;6.674;2023-06-05T03:00:46;97083.59;;;15.94;74.38
71917;BME280;59793;46.506;6.674;2023-06-05T03:03:13;97107.84;;;15.89;75.42
71917;BME280;59793;46.506;6.674;2023-06-05T03:05:42;97094.47;;;15.68;75.88
71917;BME280;59793;46.506;6.674;2023-06-05T03:08:08;97099.03;;;15.67;75.79
71917;BME280;59793;46.506;6.674;2023-06-05T03:10:33;97096.31;;;15.60;76.61
71917;BME280;59793;46.506;6.674;2023-06-05T03:13:00;97101.22;;;15.58;76.83
71917;BME280;59793;46.506;6.674;2023-06-05T03:15:25;97101.97;;;15.48;77.56
71917;BME280;59793;46.506;6.674;2023-06-05T03:17:54;97101.16;;;15.47;77.73
71917;BME280;59793;46.506;6.674;2023-06-05T03:20:19;97067.66;;;15.21;77.35
71917;BME280;59793;46.506;6.674;2023-06-05T03:22:45;97094.00;;;15.48;77.00
71917;BME280;59793;46.506;6.674;2023-06-05T03:25:10;97077.25;;;15.44;76.93
71917;BME280;59793;46.506;6.674;2023-06-05T03:27:36;97100.88;;;15.63;77.04
71917;BME280;59793;46.506;6.674;2023-06-05T03:30:03;97060.94;;;15.42;76.34
71917;BME280;59793;46.506;6.674;2023-06-05T03:32:29;97098.28;;;15.70;76.45
71917;BME280;59793;46.506;6.674;2023-06-05T03:34:54;97103.63;;;15.77;76.30
71917;BME280;59793;46.506;6.674;2023-06-05T03:37:20;97061.41;;;15.58;76.04
71917;BME280;59793;46.506;6.674;2023-06-05T03:39:45;97087.69;;;15.77;76.25
71917;BME280;59793;46.506;6.674;2023-06-05T03:42:11;97064.06;;;15.65;75.81
71917;BME280;59793;46.506;6.674;2023-06-05T03:44:36;97077.84;;;15.82;75.62
71917;BME280;59793;46.506;6.674;2023-06-05T03:47:02;97080.47;;;15.74;75.65
71917;BME280;59793;46.506;6.674;2023-06-05T03:49:28;97095.75;;;15.95;75.54
71917;BME280;59793;46.506;6.674;2023-06-05T03:51:54;97094.59;;;16.00;75.25
71917;BME280;59793;46.506;6.674;2023-06-05T03:54:26;97098.44;;;16.06;75.15
71917;BME280;59793;46.506;6.674;2023-06-05T03:56:53;97096.53;;;16.03;74.50
71917;BME280;59793;46.506;6.674;2023-06-05T03:59:21;97082.47;;;15.99;74.29
71917;BME280;59793;46.506;6.674;2023-06-05T04:01:47;97109.13;;;16.35;73.88
71917;BME280;59793;46.506;6.674;2023-06-05T04:04:14;97036.91;;;16.08;73.21
71917;BME280;59793;46.506;6.674;2023-06-05T04:06:39;97092.84;;;16.43;72.67
71917;BME280;59793;46.506;6.674;2023-06-05T04:09:06;97093.91;;;16.24;72.99
71917;BME280;59793;46.506;6.674;2023-06-05T04:11:42;97110.63;;;16.25;73.76
71917;BME280;59793;46.506;6.674;2023-06-05T04:14:09;97114.44;;;16.31;73.21
71917;BME280;59793;46.506;6.674;2023-06-05T04:16:39;97093.16;;;16.17;73.65
71917;BME280;59793;46.506;6.674;2023-06-05T04:19:06;97109.91;;;16.39;73.21
71917;BME280;59793;46.506;6.674;2023-06-05T04:21:36;97115.22;;;16.32;73.66
71917;BME280;59793;46.506;6.674;2023-06-05T04:24:03;97061.13;;;15.77;74.17
71917;BME280;59793;46.506;6.674;2023-06-05T04:26:33;97091.47;;;15.69;74.92
71917;BME280;59793;46.506;6.674;2023-06-05T04:28:58;97094.88;;;15.66;75.46
71917;BME280;59793;46.506;6.674;2023-06-05T04:31:23;97108.28;;;15.95;74.58
71917;BME280;59793;46.506;6.674;2023-06-05T04:33:50;97044.81;;;15.79;73.64
71917;BME280;59793;46.506;6.674;2023-06-05T04:36:16;97116.75;;;16.40;73.25
71917;BME280;59793;46.506;6.674;2023-06-05T04:38:43;97090.16;;;16.29;73.07
71917;BME280;59793;46.506;6.674;2023-06-05T04:41:10;97128.97;;;16.69;72.62
71917;BME280;59793;46.506;6.674;2023-06-05T04:43:36;97111.09;;;16.59;72.50
71917;BME280;59793;46.506;6.674;2023-06-05T04:46:01;97121.34;;;16.57;72.98
71917;BME280;59793;46.506;6.674;2023-06-05T04:48:28;97080.28;;;16.33;72.70
71917;BME280;59793;46.506;6.674;2023-06-05T04:50:53;97118.66;;;16.54;72.90
71917;BME280;59793;46.506;6.674;2023-06-05T04:53:21;97109.16;;;16.42;73.07
71917;BME280;59793;46.506;6.674;2023-06-05T04:55:46;97107.66;;;16.41;73.28
71917;BME280;59793;46.506;6.674;2023-06-05T04:58:14;97105.41;;;16.57;73.07
71917;BME280;59793;46.506;6.674;2023-06-05T05:00:41;97114.19;;;16.79;72.55
71917;BME280;59793;46.506;6.674;2023-06-05T05:03:07;97132.44;;;16.91;72.34
71917;BME280;59793;46.506;6.674;2023-06-05T05:05:33;97105.81;;;16.91;71.70
71917;BME280;59793;46.506;6.674;2023-06-05T05:08:00;97138.91;;;17.19;72.13
71917;BME280;59793;46.506;6.674;2023-06-05T05:10:27;97067.41;;;16.85;72.10
71917;BME280;59793;46.506;6.674;2023-06-05T05:12:53;97063.22;;;16.95;71.54
71917;BME280;59793;46.506;6.674;2023-06-05T05:15:20;97113.00;;;17.34;70.96
71917;BME280;59793;46.506;6.674;2023-06-05T05:17:45;97100.81;;;17.40;70.69
71917;BME280;59793;46.506;6.674;2023-06-05T05:20:11;97081.78;;;17.38;70.51
71917;BME280;59793;46.506;6.674;2023-06-05T05:22:36;97074.56;;;17.35;70.72
71917;BME280;59793;46.506;6.674;2023-06-05T05:25:03;97135.75;;;17.85;70.15
71917;BME280;59793;46.506;6.674;2023-06-05T05:27:28;97138.00;;;17.97;70.08
71917;BME280;59793;46.506;6.674;2023-06-05T05:29:53;97124.28;;;17.99;69.97
71917;BME280;59793;46.506;6.674;2023-06-05T05:32:19;97074.06;;;17.83;68.89
71917;BME280;59793;46.506;6.674;2023-06-05T05:34:45;97142.38;;;18.36;69.05
71917;BME280;59793;46.506;6.674;2023-06-05T05:37:11;97147.66;;;18.47;68.24
71917;BME280;59793;46.506;6.674;2023-06-05T05:39:37;97143.78;;;18.58;68.41
71917;BME280;59793;46.506;6.674;2023-06-05T05:42:04;97135.00;;;18.58;68.20
71917;BME280;59793;46.506;6.674;2023-06-05T05:44:32;97154.38;;;18.80;68.05
71917;BME280;59793;46.506;6.674;2023-06-05T05:46:59;97149.72;;;18.88;68.18
71917;BME280;59793;46.506;6.674;2023-06-05T05:49:25;97149.66;;;18.98;67.87
71917;BME280;59793;46.506;6.674;2023-06-05T05:51:50;97123.75;;;18.92;67.89
71917;BME280;59793;46.506;6.674;2023-06-05T05:54:15;97131.84;;;18.81;67.39
71917;BME280;59793;46.506;6.674;2023-06-05T05:56:41;97135.16;;;18.96;66.92
71917;BME280;59793;46.506;6.674;2023-06-05T05:59:15;97147.97;;;19.19;66.63
71917;BME280;59793;46.506;6.674;2023-06-05T06:01:40;97087.94;;;18.89;66.37
71917;BME280;59793;46.506;6.674;2023-06-05T06:04:07;97128.22;;;19.09;66.12
71917;BME280;59793;46.506;6.674;2023-06-05T06:06:32;97126.50;;;19.29;65.69
71917;BME280;59793;46.506;6.674;2023-06-05T06:08:58;97145.56;;;19.31;65.51
71917;BME280;59793;46.506;6.674;2023-06-05T06:11:23;97134.13;;;18.82;66.78
71917;BME280;59793;46.506;6.674;2023-06-05T06:13:53;97127.03;;;18.54;67.98
71917;BME280;59793;46.506;6.674;2023-06-05T06:16:19;97143.38;;;18.63;68.16
71917;BME280;59793;46.506;6.674;2023-06-05T06:18:44;97143.50;;;18.42;69.06
71917;BME280;59793;46.506;6.674;2023-06-05T06:21:10;97110.41;;;18.29;68.78
71917;BME280;59793;46.506;6.674;2023-06-05T06:23:36;97121.47;;;18.31;69.48
71917;BME280;59793;46.506;6.674;2023-06-05T06:26:01;97124.19;;;18.24;69.74
71917;BME280;59793;46.506;6.674;2023-06-05T06:28:31;97146.25;;;18.28;70.51
71917;BME280;59793;46.506;6.674;2023-06-05T06:30:57;97145.88;;;18.26;70.80
71917;BME280;59793;46.506;6.674;2023-06-05T06:33:22;97136.44;;;18.07;71.56
71917;BME280;59793;46.506;6.674;2023-06-05T06:35:48;97157.75;;;18.07;71.30
71917;BME280;59793;46.506;6.674;2023-06-05T06:38:13;97141.81;;;17.96;71.73
71917;BME280;59793;46.506;6.674;2023-06-05T06:40:38;97141.69;;;18.25;71.06
71917;BME280;59793;46.506;6.674;2023-06-05T06:43:04;97131.03;;;18.21;70.45
71917;BME280;59793;46.506;6.674;2023-06-05T06:45:29;97129.53;;;18.17;70.06
71917;BME280;59793;46.506;6.674;2023-06-05T06:47:57;97120.34;;;18.28;69.41
71917;BME280;59793;46.506;6.674;2023-06-05T06:50:23;97154.53;;;18.44;70.13
71917;BME280;59793;46.506;6.674;2023-06-05T06:52:48;97107.91;;;17.97;70.95
71917;BME280;59793;46.506;6.674;2023-06-05T06:55:15;97163.69;;;18.43;70.60
71917;BME280;59793;46.506;6.674;2023-06-05T06:57:41;97154.00;;;18.71;69.74
71917;BME280;59793;46.506;6.674;2023-06-05T07:00:07;97164.69;;;18.71;69.08
71917;BME280;59793;46.506;6.674;2023-06-05T07:02:35;97101.75;;;18.10;70.26
71917;BME280;59793;46.506;6.674;2023-06-05T07:05:01;97169.00;;;18.50;69.89
71917;BME280;59793;46.506;6.674;2023-06-05T07:07:26;97168.19;;;18.57;70.12
71917;BME280;59793;46.506;6.674;2023-06-05T07:09:53;97157.06;;;18.69;69.94
71917;BME280;59793;46.506;6.674;2023-06-05T07:12:19;97159.00;;;18.61;69.47
71917;BME280;59793;46.506;6.674;2023-06-05T07:14:45;97168.00;;;18.93;68.09
71917;BME280;59793;46.506;6.674;2023-06-05T07:17:11;97160.06;;;18.82;68.05
71917;BME280;59793;46.506;6.674;2023-06-05T07:19:37;97161.03;;;19.06;67.82
71917;BME280;59793;46.506;6.674;2023-06-05T07:22:03;97143.75;;;19.18;66.42
71917;BME280;59793;46.506;6.674;2023-06-05T07:24:33;97158.91;;;18.83;67.43
71917;BME280;59793;46.506;6.674;2023-06-05T07:27:01;97131.03;;;18.91;67.29
71917;BME280;59793;46.506;6.674;2023-06-05T07:29:27;97151.31;;;19.30;66.21
71917;BME280;59793;46.506;6.674;2023-06-05T07:31:55;97149.94;;;19.52;64.88
71917;BME280;59793;46.506;6.674;2023-06-05T07:34:22;97142.84;;;19.35;64.60
71917;BME280;59793;46.506;6.674;2023-06-05T07:36:49;97117.50;;;19.13;65.54
71917;BME280;59793;46.506;6.674;2023-06-05T07:39:16;97151.59;;;19.39;65.31
71917;BME280;59793;46.506;6.674;2023-06-05T07:41:42;97145.34;;;19.11;65.71
71917;BME280;59793;46.506;6.674;2023-06-05T07:44:14;97080.50;;;19.07;65.42
71917;BME280;59793;46.506;6.674;2023-06-05T07:46:40;97121.97;;;19.23;64.84
71917;BME280;59793;46.506;6.674;2023-06-05T07:49:06;97144.41;;;19.32;65.29
71917;BME280;59793;46.506;6.674;2023-06-05T07:51:32;97100.88;;;18.94;66.79
71917;BME280;59793;46.506;6.674;2023-06-05T07:54:03;97143.41;;;19.16;65.97
71917;BME280;59793;46.506;6.674;2023-06-05T07:56:28;97079.50;;;18.94;66.00
71917;BME280;59793;46.506;6.674;2023-06-05T07:58:56;97137.25;;;19.22;66.46
71917;BME280;59793;46.506;6.674;2023-06-05T08:01:22;97118.84;;;18.83;67.49
71917;BME280;59793;46.506;6.674;2023-06-05T08:03:47;97081.31;;;19.04;66.33
71917;BME280;59793;46.506;6.674;2023-06-05T08:06:13;97132.47;;;19.44;65.36
71917;BME280;59793;46.506;6.674;2023-06-05T08:08:39;97086.09;;;19.24;65.43
71917;BME280;59793;46.506;6.674;2023-06-05T08:11:04;97126.47;;;19.71;64.04
71917;BME280;59793;46.506;6.674;2023-06-05T08:13:29;97133.09;;;19.59;64.38
71917;BME280;59793;46.506;6.674;2023-06-05T08:15:55;97121.34;;;19.49;64.38
71917;BME280;59793;46.506;6.674;2023-06-05T08:18:21;97114.31;;;19.66;64.04
71917;BME280;59793;46.506;6.674;2023-06-05T08:20:46;97133.78;;;19.67;64.44
71917;BME280;59793;46.506;6.674;2023-06-05T08:23:12;97125.94;;;19.87;63.77
71917;BME280;59793;46.506;6.674;2023-06-05T08:25:37;97104.34;;;20.04;62.84
71917;BME280;59793;46.506;6.674;2023-06-05T08:28:03;97080.25;;;19.74;61.91
71917;BME280;59793;46.506;6.674;2023-06-05T08:30:28;97116.63;;;20.29;61.21
71917;BME280;59793;46.506;6.674;2023-06-05T08:32:55;97113.16;;;20.32;61.06
71917;BME280;59793;46.506;6.674;2023-06-05T08:35:20;97122.84;;;20.49;60.87
71917;BME280;59793;46.506;6.674;2023-06-05T08:37:45;97089.59;;;20.74;59.39
71917;BME280;59793;46.506;6.674;2023-06-05T08:40:11;97118.34;;;20.97;59.36
71917;BME280;59793;46.506;6.674;2023-06-05T08:42:38;97120.94;;;20.77;59.30
71917;BME280;59793;46.506;6.674;2023-06-05T08:45:07;97120.88;;;20.81;58.84
71917;BME280;59793;46.506;6.674;2023-06-05T08:47:37;97090.56;;;20.64;59.19
71917;BME280;59793;46.506;6.674;2023-06-05T08:50:05;97097.22;;;20.48;59.66
71917;BME280;59793;46.506;6.674;2023-06-05T08:52:34;97113.00;;;20.70;59.13
71917;BME280;59793;46.506;6.674;2023-06-05T08:55:06;97089.59;;;20.50;59.07
71917;BME280;59793;46.506;6.674;2023-06-05T08:57:38;97109.09;;;20.47;60.32
71917;BME280;59793;46.506;6.674;2023-06-05T09:00:05;97082.53;;;20.33;60.33
71917;BME280;59793;46.506;6.674;2023-06-05T09:02:35;97099.91;;;20.48;59.67
71917;BME280;59793;46.506;6.674;2023-06-05T09:05:02;97097.19;;;20.25;60.94
71917;BME280;59793;46.506;6.674;2023-06-05T09:07:32;97112.78;;;20.84;59.83
71917;BME280;59793;46.506;6.674;2023-06-05T09:09:58;97083.22;;;20.91;58.91
71917;BME280;59793;46.506;6.674;2023-06-05T09:12:23;97075.03;;;21.22;57.97
71917;BME280;59793;46.506;6.674;2023-06-05T09:14:51;97079.25;;;20.49;59.94
71917;BME280;59793;46.506;6.674;2023-06-05T09:17:16;97086.50;;;20.25;61.43
71917;BME280;59793;46.506;6.674;2023-06-05T09:19:42;97092.34;;;20.94;59.48
71917;BME280;59793;46.506;6.674;2023-06-05T09:22:09;97081.50;;;21.24;58.36
71917;BME280;59793;46.506;6.674;2023-06-05T09:24:35;97100.81;;;20.92;59.37
71917;BME280;59793;46.506;6.674;2023-06-05T09:31:56;97082.06;;;20.92;60.20
71917;BME280;59793;46.506;6.674;2023-06-05T09:34:35;97072.31;;;21.02;60.25
71917;BME280;59793;46.506;6.674;2023-06-05T09:37:09;97055.75;;;20.64;59.88
71917;BME280;59793;46.506;6.674;2023-06-05T09:39:36;97072.97;;;20.86;59.04
71917;BME280;59793;46.506;6.674;2023-06-05T09:42:02;97075.59;;;21.13;58.23
71917;BME280;59793;46.506;6.674;2023-06-05T09:44:29;97049.69;;;20.83;58.88
71917;BME280;59793;46.506;6.674;2023-06-05T09:47:08;97066.16;;;21.05;58.69
71917;BME280;59793;46.506;6.674;2023-06-05T09:52:08;97059.97;;;21.08;60.99
71917;BME280;59793;46.506;6.674;2023-06-05T09:54:36;97051.75;;;21.19;60.13
71917;BME280;59793;46.506;6.674;2023-06-05T09:57:06;97061.69;;;21.42;58.74
71917;BME280;59793;46.506;6.674;2023-06-05T09:59:35;97058.88;;;21.69;58.97
71917;BME280;59793;46.506;6.674;2023-06-05T10:02:07;97041.63;;;21.70;58.35
71917;BME280;59793;46.506;6.674;2023-06-05T10:04:46;97047.53;;;21.81;58.35
71917;BME280;59793;46.506;6.674;2023-06-05T10:07:13;97059.06;;;21.98;57.61
71917;BME280;59793;46.506;6.674;2023-06-05T10:09:39;97053.53;;;22.05;58.33
71917;BME280;59793;46.506;6.674;2023-06-05T10:12:07;97053.03;;;22.63;56.38
71917;BME280;59793;46.506;6.674;2023-06-05T10:14:35;97052.19;;;22.66;55.19
71917;BME280;59793;46.506;6.674;2023-06-05T10:17:01;97037.81;;;22.24;55.48
71917;BME280;59793;46.506;6.674;2023-06-05T10:19:27;97020.47;;;22.28;56.50
71917;BME280;59793;46.506;6.674;2023-06-05T10:21:52;96983.78;;;21.69;58.10
71917;BME280;59793;46.506;6.674;2023-06-05T10:24:24;97018.97;;;22.07;57.52
71917;BME280;59793;46.506;6.674;2023-06-05T10:32:59;97054.94;;;22.46;58.19
71917;BME280;59793;46.506;6.674;2023-06-05T10:38:26;97042.59;;;22.16;57.74
71917;BME280;59793;46.506;6.674;2023-06-05T10:40:57;97015.88;;;21.72;58.79
71917;BME280;59793;46.506;6.674;2023-06-05T10:43:48;97042.34;;;21.90;57.35
71917;BME280;59793;46.506;6.674;2023-06-05T10:46:29;97036.09;;;22.33;58.17
71917;BME280;59793;46.506;6.674;2023-06-05T10:51:45;97040.25;;;22.51;57.53
71917;BME280;59793;46.506;6.674;2023-06-05T10:56:52;97030.41;;;21.75;58.34
71917;BME280;59793;46.506;6.674;2023-06-05T10:59:22;97017.78;;;22.45;56.43
71917;BME280;59793;46.506;6.674;2023-06-05T11:07:21;96965.19;;;22.31;55.02
71917;BME280;59793;46.506;6.674;2023-06-05T11:15:15;97011.72;;;22.73;55.58
71917;BME280;59793;46.506;6.674;2023-06-05T11:17:45;97013.16;;;22.94;53.31
71917;BME280;59793;46.506;6.674;2023-06-05T11:30:19;96996.00;;;23.04;56.70
71917;BME280;59793;46.506;6.674;2023-06-05T11:32:46;97007.38;;;23.79;56.71
71917;BME280;59793;46.506;6.674;2023-06-05T11:35:11;96959.88;;;23.47;55.70
71917;BME280;59793;46.506;6.674;2023-06-05T11:37:38;96993.41;;;23.43;55.75
71917;BME280;59793;46.506;6.674;2023-06-05T11:40:06;96981.66;;;23.78;52.27
71917;BME280;59793;46.506;6.674;2023-06-05T11:42:35;96988.88;;;24.07;50.86
71917;BME280;59793;46.506;6.674;2023-06-05T11:45:01;96942.59;;;23.87;51.07
71917;BME280;59793;46.506;6.674;2023-06-05T11:47:28;96939.81;;;24.38;48.59
71917;BME280;59793;46.506;6.674;2023-06-05T11:50:07;96958.59;;;24.76;47.90
71917;BME280;59793;46.506;6.674;2023-06-05T11:52:33;96981.97;;;24.31;51.08
71917;BME280;59793;46.506;6.674;2023-06-05T11:55:19;96979.00;;;24.64;50.21
71917;BME280;59793;46.506;6.674;2023-06-05T11:57:47;96968.22;;;25.43;47.35
71917;BME280;59793;46.506;6.674;2023-06-05T12:00:13;96966.28;;;25.21;46.74
71917;BME280;59793;46.506;6.674;2023-06-05T12:02:42;96946.63;;;25.43;38.47
71917;BME280;59793;46.506;6.674;2023-06-05T12:05:08;96956.53;;;26.08;43.67
71917;BME280;59793;46.506;6.674;2023-06-05T12:07:34;96952.84;;;25.84;45.04
71917;BME280;59793;46.506;6.674;2023-06-05T12:10:03;96927.00;;;26.23;38.73
71917;BME280;59793;46.506;6.674;2023-06-05T12:12:29;96959.34;;;26.82;40.53
71917;BME280;59793;46.506;6.674;2023-06-05T12:14:55;96953.94;;;26.82;40.26
71917;BME280;59793;46.506;6.674;2023-06-05T12:17:21;96935.44;;;26.99;34.84
71917;BME280;59793;46.506;6.674;2023-06-05T12:19:55;96929.88;;;27.02;36.26
71917;BME280;59793;46.506;6.674;2023-06-05T12:22:21;96928.69;;;27.12;31.39
71917;BME280;59793;46.506;6.674;2023-06-05T12:24:46;96929.72;;;27.24;32.36
71917;BME280;59793;46.506;6.674;2023-06-05T12:27:12;96928.91;;;27.42;29.81
71917;BME280;59793;46.506;6.674;2023-06-05T12:29:38;96917.66;;;27.34;34.87
71917;BME280;59793;46.506;6.674;2023-06-05T12:32:21;96929.28;;;27.16;34.67
71917;BME280;59793;46.506;6.674;2023-06-05T12:34:47;96897.59;;;26.99;33.09
71917;BME280;59793;46.506;6.674;2023-06-05T12:37:33;96935.69;;;27.37;36.61
71917;BME280;59793;46.506;6.674;2023-06-05T12:40:03;96916.97;;;27.25;36.26
71917;BME280;59793;46.506;6.674;2023-06-05T12:42:37;96901.03;;;27.08;37.70
71917;BME280;59793;46.506;6.674;2023-06-05T12:45:04;96906.97;;;27.49;31.80
71917;BME280;59793;46.506;6.674;2023-06-05T12:47:31;96911.94;;;27.41;32.81
71917;BME280;59793;46.506;6.674;2023-06-05T12:49:57;96910.19;;;27.62;30.42
71917;BME280;59793;46.506;6.674;2023-06-05T12:52:23;96915.16;;;27.22;30.74
71917;BME280;59793;46.506;6.674;2023-06-05T12:54:52;96915.41;;;26.04;39.19
71917;BME280;59793;46.506;6.674;2023-06-05T12:57:17;96912.84;;;26.01;39.79
71917;BME280;59793;46.506;6.674;2023-06-05T12:59:46;96903.09;;;26.03;40.04
71917;BME280;59793;46.506;6.674;2023-06-05T13:02:12;96904.75;;;26.01;33.17
71917;BME280;59793;46.506;6.674;2023-06-05T13:04:38;96896.97;;;26.03;38.12
71917;BME280;59793;46.506;6.674;2023-06-05T13:07:04;96908.91;;;26.51;34.66
71917;BME280;59793;46.506;6.674;2023-06-05T13:09:33;96883.06;;;26.87;30.79
71917;BME280;59793;46.506;6.674;2023-06-05T13:11:59;96901.81;;;27.60;29.61
71917;BME280;59793;46.506;6.674;2023-06-05T13:14:25;96900.91;;;27.63;30.46
71917;BME280;59793;46.506;6.674;2023-06-05T13:16:51;96876.06;;;27.32;28.68
71917;BME280;59793;46.506;6.674;2023-06-05T13:19:16;96869.03;;;27.58;27.88
71917;BME280;59793;46.506;6.674;2023-06-05T13:21:42;96885.28;;;28.16;27.33
71917;BME280;59793;46.506;6.674;2023-06-05T13:24:07;96889.09;;;28.87;26.74
71917;BME280;59793;46.506;6.674;2023-06-05T13:26:33;96879.38;;;28.80;28.41
71917;BME280;59793;46.506;6.674;2023-06-05T13:28:58;96874.44;;;29.08;24.93
71917;BME280;59793;46.506;6.674;2023-06-05T13:31:23;96884.72;;;29.04;25.17
71917;BME280;59793;46.506;6.674;2023-06-05T13:33:50;96883.34;;;29.09;26.49
71917;BME280;59793;46.506;6.674;2023-06-05T13:36:17;96888.44;;;29.66;27.43
71917;BME280;59793;46.506;6.674;2023-06-05T13:38:47;96828.97;;;29.18;23.61
71917;BME280;59793;46.506;6.674;2023-06-05T13:41:14;96884.31;;;29.56;24.93
71917;BME280;59793;46.506;6.674;2023-06-05T13:43:39;96889.72;;;29.56;24.86
71917;BME280;59793;46.506;6.674;2023-06-05T13:46:04;96894.88;;;29.53;25.56